X  ZavřítMETAR data      LKPD Pardubice Airport

Teplota

-1°C Teplota

-1°C Rosný bod

100% Vlhkost



Vítr

 3 KM/H

 2 MPH

 1 M/S

 2 KTS



70°
VSV směr
Současné podmínky

Jasno Jasno
Tlak vzduchu 1029.92 (hPa) - 30.41 (in)
Dohlednost 5 (mi) - 8 (km)
Letiště
Kód letiště LKPD

Lokace Pardubice Airport 80 (km)

Metar:
LKPD 240300Z 07002KT 8000 NSC M01/M01 Q1030 RMK BLACK

Čas: 24-11-2020 04:00